sensor_id;sensor_type;location;lat;lon;timestamp;P1;durP1;ratioP1;P2;durP2;ratioP2
12476;SDS011;6303;51.504;6.300;2022-10-16T00:00:31;3.95;;;2.00;;
12476;SDS011;6303;51.504;6.300;2022-10-16T00:02:59;3.47;;;1.73;;
12476;SDS011;6303;51.504;6.300;2022-10-16T00:05:26;2.33;;;2.00;;
12476;SDS011;6303;51.504;6.300;2022-10-16T00:07:54;3.72;;;1.90;;
12476;SDS011;6303;51.504;6.300;2022-10-16T00:10:21;2.83;;;1.80;;
12476;SDS011;6303;51.504;6.300;2022-10-16T00:12:48;3.47;;;2.10;;
12476;SDS011;6303;51.504;6.300;2022-10-16T00:15:15;2.35;;;1.85;;
12476;SDS011;6303;51.504;6.300;2022-10-16T00:17:42;3.40;;;1.90;;
12476;SDS011;6303;51.504;6.300;2022-10-16T00:20:11;3.08;;;1.90;;
12476;SDS011;6303;51.504;6.300;2022-10-16T00:22:38;2.92;;;1.85;;
12476;SDS011;6303;51.504;6.300;2022-10-16T00:25:05;3.60;;;2.10;;
12476;SDS011;6303;51.504;6.300;2022-10-16T00:27:33;2.42;;;1.75;;
12476;SDS011;6303;51.504;6.300;2022-10-16T00:30:00;2.97;;;1.85;;
12476;SDS011;6303;51.504;6.300;2022-10-16T00:32:27;2.00;;;1.70;;
12476;SDS011;6303;51.504;6.300;2022-10-16T00:34:54;2.83;;;1.88;;
12476;SDS011;6303;51.504;6.300;2022-10-16T00:37:23;3.03;;;1.63;;
12476;SDS011;6303;51.504;6.300;2022-10-16T00:39:50;2.63;;;1.90;;
12476;SDS011;6303;51.504;6.300;2022-10-16T00:42:18;2.40;;;1.95;;
12476;SDS011;6303;51.504;6.300;2022-10-16T00:44:47;2.05;;;1.85;;
12476;SDS011;6303;51.504;6.300;2022-10-16T00:47:19;2.60;;;1.90;;
12476;SDS011;6303;51.504;6.300;2022-10-16T00:49:49;3.03;;;1.70;;
12476;SDS011;6303;51.504;6.300;2022-10-16T00:52:19;2.15;;;1.70;;
12476;SDS011;6303;51.504;6.300;2022-10-16T00:54:48;2.83;;;1.80;;
12476;SDS011;6303;51.504;6.300;2022-10-16T00:57:16;2.58;;;1.83;;
12476;SDS011;6303;51.504;6.300;2022-10-16T00:59:43;1.75;;;1.50;;
12476;SDS011;6303;51.504;6.300;2022-10-16T01:02:13;2.53;;;1.80;;
12476;SDS011;6303;51.504;6.300;2022-10-16T01:04:43;2.75;;;1.80;;
12476;SDS011;6303;51.504;6.300;2022-10-16T01:07:14;3.80;;;2.03;;
12476;SDS011;6303;51.504;6.300;2022-10-16T01:09:54;2.75;;;1.58;;
12476;SDS011;6303;51.504;6.300;2022-10-16T01:12:31;3.38;;;1.80;;
12476;SDS011;6303;51.504;6.300;2022-10-16T01:15:06;1.52;;;1.42;;
12476;SDS011;6303;51.504;6.300;2022-10-16T01:17:39;1.92;;;1.60;;
12476;SDS011;6303;51.504;6.300;2022-10-16T01:20:14;2.05;;;1.70;;
12476;SDS011;6303;51.504;6.300;2022-10-16T01:23:09;2.50;;;1.80;;
12476;SDS011;6303;51.504;6.300;2022-10-16T01:25:52;1.80;;;1.70;;
12476;SDS011;6303;51.504;6.300;2022-10-16T01:28:30;2.28;;;1.63;;
12476;SDS011;6303;51.504;6.300;2022-10-16T01:31:02;2.05;;;1.60;;
12476;SDS011;6303;51.504;6.300;2022-10-16T01:33:33;2.08;;;1.60;;
12476;SDS011;6303;51.504;6.300;2022-10-16T01:36:05;1.90;;;1.70;;
12476;SDS011;6303;51.504;6.300;2022-10-16T01:38:36;2.03;;;1.80;;
12476;SDS011;6303;51.504;6.300;2022-10-16T01:41:07;2.40;;;1.70;;
12476;SDS011;6303;51.504;6.300;2022-10-16T01:43:39;2.33;;;1.52;;
12476;SDS011;6303;51.504;6.300;2022-10-16T01:46:09;1.67;;;1.50;;
12476;SDS011;6303;51.504;6.300;2022-10-16T01:48:39;1.83;;;1.70;;
12476;SDS011;6303;51.504;6.300;2022-10-16T01:51:08;1.90;;;1.60;;
12476;SDS011;6303;51.504;6.300;2022-10-16T01:53:38;2.88;;;1.92;;
12476;SDS011;6303;51.504;6.300;2022-10-16T01:56:08;1.70;;;1.60;;
12476;SDS011;6303;51.504;6.300;2022-10-16T01:58:39;2.80;;;1.65;;
12476;SDS011;6303;51.504;6.300;2022-10-16T02:01:11;1.75;;;1.63;;
12476;SDS011;6303;51.504;6.300;2022-10-16T02:03:41;2.00;;;1.52;;
12476;SDS011;6303;51.504;6.300;2022-10-16T02:06:10;1.90;;;1.50;;
12476;SDS011;6303;51.504;6.300;2022-10-16T02:08:38;2.15;;;1.30;;
12476;SDS011;6303;51.504;6.300;2022-10-16T02:11:09;1.50;;;1.40;;
12476;SDS011;6303;51.504;6.300;2022-10-16T02:13:37;1.70;;;1.60;;
12476;SDS011;6303;51.504;6.300;2022-10-16T02:16:10;1.73;;;1.63;;
12476;SDS011;6303;51.504;6.300;2022-10-16T02:18:38;1.65;;;1.50;;
12476;SDS011;6303;51.504;6.300;2022-10-16T02:21:07;1.52;;;1.42;;
12476;SDS011;6303;51.504;6.300;2022-10-16T02:23:42;1.38;;;1.27;;
12476;SDS011;6303;51.504;6.300;2022-10-16T02:26:15;1.30;;;1.20;;
12476;SDS011;6303;51.504;6.300;2022-10-16T02:28:52;1.60;;;1.50;;
12476;SDS011;6303;51.504;6.300;2022-10-16T02:31:25;1.50;;;1.40;;
12476;SDS011;6303;51.504;6.300;2022-10-16T02:33:56;2.15;;;1.70;;
12476;SDS011;6303;51.504;6.300;2022-10-16T02:36:26;1.95;;;1.30;;
12476;SDS011;6303;51.504;6.300;2022-10-16T02:38:54;1.50;;;1.40;;
12476;SDS011;6303;51.504;6.300;2022-10-16T02:41:21;1.38;;;1.27;;
12476;SDS011;6303;51.504;6.300;2022-10-16T02:43:51;2.08;;;1.50;;
12476;SDS011;6303;51.504;6.300;2022-10-16T02:46:20;1.73;;;1.63;;
12476;SDS011;6303;51.504;6.300;2022-10-16T02:48:47;1.50;;;1.40;;
12476;SDS011;6303;51.504;6.300;2022-10-16T02:51:14;1.67;;;1.58;;
12476;SDS011;6303;51.504;6.300;2022-10-16T02:53:41;1.30;;;1.20;;
12476;SDS011;6303;51.504;6.300;2022-10-16T02:56:08;1.40;;;1.30;;
12476;SDS011;6303;51.504;6.300;2022-10-16T02:58:35;1.35;;;1.25;;
12476;SDS011;6303;51.504;6.300;2022-10-16T03:01:04;1.73;;;1.50;;
12476;SDS011;6303;51.504;6.300;2022-10-16T03:03:31;3.28;;;1.83;;
12476;SDS011;6303;51.504;6.300;2022-10-16T03:05:58;2.08;;;1.23;;
12476;SDS011;6303;51.504;6.300;2022-10-16T03:08:25;1.35;;;1.25;;
12476;SDS011;6303;51.504;6.300;2022-10-16T03:10:52;1.40;;;1.30;;
12476;SDS011;6303;51.504;6.300;2022-10-16T03:13:19;1.55;;;1.40;;
12476;SDS011;6303;51.504;6.300;2022-10-16T03:15:46;1.88;;;1.30;;
12476;SDS011;6303;51.504;6.300;2022-10-16T03:18:15;1.30;;;1.20;;
12476;SDS011;6303;51.504;6.300;2022-10-16T03:20:42;1.40;;;1.30;;
12476;SDS011;6303;51.504;6.300;2022-10-16T03:23:09;1.63;;;1.50;;
12476;SDS011;6303;51.504;6.300;2022-10-16T03:25:37;1.40;;;1.30;;
12476;SDS011;6303;51.504;6.300;2022-10-16T03:28:04;1.45;;;1.35;;
12476;SDS011;6303;51.504;6.300;2022-10-16T03:30:31;1.10;;;1.10;;
12476;SDS011;6303;51.504;6.300;2022-10-16T03:32:58;1.35;;;1.27;;
12476;SDS011;6303;51.504;6.300;2022-10-16T03:35:26;1.30;;;1.20;;
12476;SDS011;6303;51.504;6.300;2022-10-16T03:37:53;1.38;;;1.27;;
12476;SDS011;6303;51.504;6.300;2022-10-16T03:40:21;1.13;;;1.00;;
12476;SDS011;6303;51.504;6.300;2022-10-16T03:42:48;1.35;;;1.25;;
12476;SDS011;6303;51.504;6.300;2022-10-16T03:45:15;1.45;;;1.30;;
12476;SDS011;6303;51.504;6.300;2022-10-16T03:47:42;1.40;;;1.30;;
12476;SDS011;6303;51.504;6.300;2022-10-16T03:50:09;1.20;;;1.02;;
12476;SDS011;6303;51.504;6.300;2022-10-16T03:52:38;1.33;;;1.10;;
12476;SDS011;6303;51.504;6.300;2022-10-16T03:55:05;1.40;;;1.30;;
12476;SDS011;6303;51.504;6.300;2022-10-16T03:57:33;1.35;;;1.25;;
12476;SDS011;6303;51.504;6.300;2022-10-16T04:00:00;1.27;;;1.17;;
12476;SDS011;6303;51.504;6.300;2022-10-16T04:02:37;1.30;;;1.20;;
12476;SDS011;6303;51.504;6.300;2022-10-16T04:05:04;1.85;;;1.35;;
12476;SDS011;6303;51.504;6.300;2022-10-16T04:07:31;1.45;;;1.30;;
12476;SDS011;6303;51.504;6.300;2022-10-16T04:10:00;1.10;;;1.10;;
12476;SDS011;6303;51.504;6.300;2022-10-16T04:12:27;1.10;;;1.10;;
12476;SDS011;6303;51.504;6.300;2022-10-16T04:14:54;1.30;;;1.20;;
12476;SDS011;6303;51.504;6.300;2022-10-16T04:17:21;1.00;;;1.00;;
12476;SDS011;6303;51.504;6.300;2022-10-16T04:19:48;1.30;;;1.20;;
12476;SDS011;6303;51.504;6.300;2022-10-16T04:22:15;1.23;;;1.13;;
12476;SDS011;6303;51.504;6.300;2022-10-16T04:24:42;1.30;;;1.20;;
12476;SDS011;6303;51.504;6.300;2022-10-16T04:27:10;1.95;;;1.10;;
12476;SDS011;6303;51.504;6.300;2022-10-16T04:29:37;1.35;;;1.27;;
12476;SDS011;6303;51.504;6.300;2022-10-16T04:32:04;1.98;;;1.20;;
12476;SDS011;6303;51.504;6.300;2022-10-16T04:34:31;1.52;;;1.30;;
12476;SDS011;6303;51.504;6.300;2022-10-16T04:36:58;1.10;;;1.00;;
12476;SDS011;6303;51.504;6.300;2022-10-16T04:39:25;1.23;;;1.13;;
12476;SDS011;6303;51.504;6.300;2022-10-16T04:41:52;1.20;;;1.10;;
12476;SDS011;6303;51.504;6.300;2022-10-16T04:44:21;1.30;;;1.20;;
12476;SDS011;6303;51.504;6.300;2022-10-16T04:46:49;1.17;;;1.08;;
12476;SDS011;6303;51.504;6.300;2022-10-16T04:49:17;1.30;;;1.20;;
12476;SDS011;6303;51.504;6.300;2022-10-16T04:51:44;1.00;;;1.00;;
12476;SDS011;6303;51.504;6.300;2022-10-16T04:54:11;1.70;;;1.20;;
12476;SDS011;6303;51.504;6.300;2022-10-16T04:56:38;1.20;;;1.10;;
12476;SDS011;6303;51.504;6.300;2022-10-16T04:59:11;0.90;;;0.90;;
12476;SDS011;6303;51.504;6.300;2022-10-16T05:01:40;1.70;;;1.10;;
12476;SDS011;6303;51.504;6.300;2022-10-16T05:04:07;1.30;;;1.10;;
12476;SDS011;6303;51.504;6.300;2022-10-16T05:06:34;0.90;;;0.90;;
12476;SDS011;6303;51.504;6.300;2022-10-16T05:09:02;0.82;;;0.82;;
12476;SDS011;6303;51.504;6.300;2022-10-16T05:11:29;1.20;;;1.10;;
12476;SDS011;6303;51.504;6.300;2022-10-16T05:13:56;1.10;;;1.10;;
12476;SDS011;6303;51.504;6.300;2022-10-16T05:16:23;1.20;;;1.10;;
12476;SDS011;6303;51.504;6.300;2022-10-16T05:18:52;0.98;;;0.90;;
12476;SDS011;6303;51.504;6.300;2022-10-16T05:21:19;1.13;;;1.05;;
12476;SDS011;6303;51.504;6.300;2022-10-16T05:23:46;1.38;;;1.30;;
12476;SDS011;6303;51.504;6.300;2022-10-16T05:26:13;0.95;;;0.95;;
12476;SDS011;6303;51.504;6.300;2022-10-16T05:28:40;1.23;;;1.10;;
12476;SDS011;6303;51.504;6.300;2022-10-16T05:31:08;1.00;;;1.00;;
12476;SDS011;6303;51.504;6.300;2022-10-16T05:33:36;1.17;;;1.05;;
12476;SDS011;6303;51.504;6.300;2022-10-16T05:36:05;0.88;;;0.88;;
12476;SDS011;6303;51.504;6.300;2022-10-16T05:38:34;0.80;;;0.80;;
12476;SDS011;6303;51.504;6.300;2022-10-16T05:41:01;0.93;;;0.93;;
12476;SDS011;6303;51.504;6.300;2022-10-16T05:43:29;1.20;;;1.10;;
12476;SDS011;6303;51.504;6.300;2022-10-16T05:45:57;1.00;;;1.00;;
12476;SDS011;6303;51.504;6.300;2022-10-16T05:48:25;1.00;;;1.00;;
12476;SDS011;6303;51.504;6.300;2022-10-16T05:50:56;1.10;;;1.00;;
12476;SDS011;6303;51.504;6.300;2022-10-16T05:53:26;0.90;;;0.90;;
12476;SDS011;6303;51.504;6.300;2022-10-16T05:55:54;1.30;;;1.20;;
12476;SDS011;6303;51.504;6.300;2022-10-16T05:58:21;1.52;;;1.10;;
12476;SDS011;6303;51.504;6.300;2022-10-16T06:00:52;1.17;;;1.08;;
12476;SDS011;6303;51.504;6.300;2022-10-16T06:03:20;1.23;;;1.13;;
12476;SDS011;6303;51.504;6.300;2022-10-16T06:05:47;1.25;;;1.15;;
12476;SDS011;6303;51.504;6.300;2022-10-16T06:08:15;2.58;;;1.00;;
12476;SDS011;6303;51.504;6.300;2022-10-16T06:10:43;0.93;;;0.93;;
12476;SDS011;6303;51.504;6.300;2022-10-16T06:13:11;1.83;;;1.10;;
12476;SDS011;6303;51.504;6.300;2022-10-16T06:15:39;1.30;;;0.90;;
12476;SDS011;6303;51.504;6.300;2022-10-16T06:18:08;1.00;;;0.90;;
12476;SDS011;6303;51.504;6.300;2022-10-16T06:20:35;1.15;;;1.13;;
12476;SDS011;6303;51.504;6.300;2022-10-16T06:23:02;1.60;;;1.10;;
12476;SDS011;6303;51.504;6.300;2022-10-16T06:25:33;1.00;;;1.00;;
12476;SDS011;6303;51.504;6.300;2022-10-16T06:28:01;1.00;;;1.00;;
12476;SDS011;6303;51.504;6.300;2022-10-16T06:30:28;1.48;;;0.80;;
12476;SDS011;6303;51.504;6.300;2022-10-16T06:32:55;1.10;;;1.00;;
12476;SDS011;6303;51.504;6.300;2022-10-16T06:35:22;1.23;;;1.13;;
12476;SDS011;6303;51.504;6.300;2022-10-16T06:37:49;1.00;;;1.00;;
12476;SDS011;6303;51.504;6.300;2022-10-16T06:40:18;1.23;;;1.00;;
12476;SDS011;6303;51.504;6.300;2022-10-16T06:42:45;0.90;;;0.90;;
12476;SDS011;6303;51.504;6.300;2022-10-16T06:45:14;1.80;;;1.10;;
12476;SDS011;6303;51.504;6.300;2022-10-16T06:47:41;0.93;;;0.93;;
12476;SDS011;6303;51.504;6.300;2022-10-16T06:50:08;0.90;;;0.90;;
12476;SDS011;6303;51.504;6.300;2022-10-16T06:52:35;0.93;;;0.93;;
12476;SDS011;6303;51.504;6.300;2022-10-16T06:55:02;0.95;;;0.95;;
12476;SDS011;6303;51.504;6.300;2022-10-16T06:57:30;0.90;;;0.90;;
12476;SDS011;6303;51.504;6.300;2022-10-16T06:59:57;1.45;;;1.20;;
12476;SDS011;6303;51.504;6.300;2022-10-16T07:02:26;1.40;;;1.30;;
12476;SDS011;6303;51.504;6.300;2022-10-16T07:04:53;1.00;;;1.00;;
12476;SDS011;6303;51.504;6.300;2022-10-16T07:07:22;1.02;;;0.90;;
12476;SDS011;6303;51.504;6.300;2022-10-16T07:09:49;0.98;;;0.98;;
12476;SDS011;6303;51.504;6.300;2022-10-16T07:12:17;0.80;;;0.80;;
12476;SDS011;6303;51.504;6.300;2022-10-16T07:14:44;0.98;;;0.98;;
12476;SDS011;6303;51.504;6.300;2022-10-16T07:17:11;3.72;;;1.30;;
12476;SDS011;6303;51.504;6.300;2022-10-16T07:19:40;1.42;;;1.02;;
12476;SDS011;6303;51.504;6.300;2022-10-16T07:22:07;1.00;;;1.00;;
12476;SDS011;6303;51.504;6.300;2022-10-16T07:24:34;1.00;;;1.00;;
12476;SDS011;6303;51.504;6.300;2022-10-16T07:27:01;6.88;;;1.40;;
12476;SDS011;6303;51.504;6.300;2022-10-16T07:29:28;3.08;;;1.58;;
12476;SDS011;6303;51.504;6.300;2022-10-16T07:31:55;5.22;;;2.03;;
12476;SDS011;6303;51.504;6.300;2022-10-16T07:34:22;7.25;;;1.90;;
12476;SDS011;6303;51.504;6.300;2022-10-16T07:36:51;6.50;;;2.00;;
12476;SDS011;6303;51.504;6.300;2022-10-16T07:39:18;6.95;;;2.35;;
12476;SDS011;6303;51.504;6.300;2022-10-16T07:41:45;9.77;;;3.38;;
12476;SDS011;6303;51.504;6.300;2022-10-16T07:44:12;9.00;;;2.75;;
12476;SDS011;6303;51.504;6.300;2022-10-16T07:46:39;8.25;;;2.83;;
12476;SDS011;6303;51.504;6.300;2022-10-16T07:49:06;6.85;;;2.60;;
12476;SDS011;6303;51.504;6.300;2022-10-16T07:51:33;7.35;;;2.58;;
12476;SDS011;6303;51.504;6.300;2022-10-16T07:54:02;6.35;;;3.00;;
12476;SDS011;6303;51.504;6.300;2022-10-16T07:56:29;8.73;;;2.55;;
12476;SDS011;6303;51.504;6.300;2022-10-16T07:58:57;8.68;;;3.10;;
12476;SDS011;6303;51.504;6.300;2022-10-16T08:01:24;4.18;;;2.25;;
12476;SDS011;6303;51.504;6.300;2022-10-16T08:03:51;5.43;;;2.15;;
12476;SDS011;6303;51.504;6.300;2022-10-16T08:06:19;2.90;;;1.80;;
12476;SDS011;6303;51.504;6.300;2022-10-16T08:08:47;3.25;;;1.80;;
12476;SDS011;6303;51.504;6.300;2022-10-16T08:11:16;3.47;;;1.73;;
12476;SDS011;6303;51.504;6.300;2022-10-16T08:13:43;4.10;;;1.90;;
12476;SDS011;6303;51.504;6.300;2022-10-16T08:16:10;3.10;;;1.75;;
12476;SDS011;6303;51.504;6.300;2022-10-16T08:18:37;2.30;;;1.67;;
12476;SDS011;6303;51.504;6.300;2022-10-16T08:21:06;2.72;;;1.80;;
12476;SDS011;6303;51.504;6.300;2022-10-16T08:23:35;3.20;;;1.70;;
12476;SDS011;6303;51.504;6.300;2022-10-16T08:26:03;2.72;;;2.03;;
12476;SDS011;6303;51.504;6.300;2022-10-16T08:28:32;2.00;;;1.77;;
12476;SDS011;6303;51.504;6.300;2022-10-16T08:31:06;2.33;;;1.60;;
12476;SDS011;6303;51.504;6.300;2022-10-16T08:33:35;1.98;;;1.50;;
12476;SDS011;6303;51.504;6.300;2022-10-16T08:36:02;1.85;;;1.60;;
12476;SDS011;6303;51.504;6.300;2022-10-16T08:38:31;2.95;;;1.48;;
12476;SDS011;6303;51.504;6.300;2022-10-16T08:41:01;2.03;;;1.67;;
12476;SDS011;6303;51.504;6.300;2022-10-16T08:43:50;3.03;;;1.70;;
12476;SDS011;6303;51.504;6.300;2022-10-16T08:46:34;2.50;;;1.70;;
12476;SDS011;6303;51.504;6.300;2022-10-16T08:49:11;1.60;;;1.50;;
12476;SDS011;6303;51.504;6.300;2022-10-16T08:51:39;2.20;;;1.63;;
12476;SDS011;6303;51.504;6.300;2022-10-16T08:54:11;1.63;;;1.40;;
12476;SDS011;6303;51.504;6.300;2022-10-16T08:56:49;1.60;;;1.50;;
12476;SDS011;6303;51.504;6.300;2022-10-16T08:59:17;3.72;;;1.50;;
12476;SDS011;6303;51.504;6.300;2022-10-16T09:01:45;2.20;;;1.45;;
12476;SDS011;6303;51.504;6.300;2022-10-16T09:07:09;1.38;;;1.27;;
12476;SDS011;6303;51.504;6.300;2022-10-16T09:09:51;2.00;;;1.30;;
12476;SDS011;6303;51.504;6.300;2022-10-16T09:12:28;2.83;;;1.42;;
12476;SDS011;6303;51.504;6.300;2022-10-16T09:15:10;2.65;;;1.42;;
12476;SDS011;6303;51.504;6.300;2022-10-16T09:17:47;2.70;;;1.38;;
12476;SDS011;6303;51.504;6.300;2022-10-16T09:20:27;2.00;;;1.33;;
12476;SDS011;6303;51.504;6.300;2022-10-16T09:23:00;3.38;;;1.35;;
12476;SDS011;6303;51.504;6.300;2022-10-16T09:25:38;2.58;;;1.42;;
12476;SDS011;6303;51.504;6.300;2022-10-16T09:28:07;1.10;;;1.10;;
12476;SDS011;6303;51.504;6.300;2022-10-16T09:30:37;2.08;;;1.38;;
12476;SDS011;6303;51.504;6.300;2022-10-16T09:33:04;1.40;;;1.30;;
12476;SDS011;6303;51.504;6.300;2022-10-16T09:35:33;1.45;;;1.30;;
12476;SDS011;6303;51.504;6.300;2022-10-16T09:38:04;1.63;;;1.45;;
12476;SDS011;6303;51.504;6.300;2022-10-16T09:40:32;2.00;;;1.40;;
12476;SDS011;6303;51.504;6.300;2022-10-16T09:43:06;2.13;;;1.30;;
12476;SDS011;6303;51.504;6.300;2022-10-16T09:45:54;1.60;;;1.50;;
12476;SDS011;6303;51.504;6.300;2022-10-16T09:48:22;1.77;;;1.40;;
12476;SDS011;6303;51.504;6.300;2022-10-16T09:50:55;1.85;;;1.42;;
12476;SDS011;6303;51.504;6.300;2022-10-16T09:53:23;2.03;;;1.25;;
12476;SDS011;6303;51.504;6.300;2022-10-16T09:55:53;2.15;;;1.60;;
12476;SDS011;6303;51.504;6.300;2022-10-16T09:58:21;1.73;;;1.30;;
12476;SDS011;6303;51.504;6.300;2022-10-16T10:00:48;1.50;;;1.40;;
12476;SDS011;6303;51.504;6.300;2022-10-16T10:03:26;1.60;;;1.40;;
12476;SDS011;6303;51.504;6.300;2022-10-16T10:06:05;2.20;;;1.35;;
12476;SDS011;6303;51.504;6.300;2022-10-16T10:08:52;2.40;;;1.40;;
12476;SDS011;6303;51.504;6.300;2022-10-16T10:14:08;3.63;;;1.42;;
12476;SDS011;6303;51.504;6.300;2022-10-16T10:16:43;2.22;;;1.40;;
12476;SDS011;6303;51.504;6.300;2022-10-16T10:19:14;2.55;;;1.50;;
12476;SDS011;6303;51.504;6.300;2022-10-16T10:21:42;1.75;;;1.40;;
12476;SDS011;6303;51.504;6.300;2022-10-16T10:24:10;3.42;;;1.45;;
12476;SDS011;6303;51.504;6.300;2022-10-16T10:26:38;1.58;;;1.38;;
12476;SDS011;6303;51.504;6.300;2022-10-16T10:29:13;3.33;;;1.52;;
12476;SDS011;6303;51.504;6.300;2022-10-16T10:31:50;1.65;;;1.20;;
12476;SDS011;6303;51.504;6.300;2022-10-16T10:34:34;1.98;;;1.23;;
12476;SDS011;6303;51.504;6.300;2022-10-16T10:37:10;3.92;;;1.48;;
12476;SDS011;6303;51.504;6.300;2022-10-16T10:39:50;5.85;;;1.40;;
12476;SDS011;6303;51.504;6.300;2022-10-16T10:42:22;2.60;;;1.40;;
12476;SDS011;6303;51.504;6.300;2022-10-16T10:47:47;3.05;;;1.40;;
12476;SDS011;6303;51.504;6.300;2022-10-16T10:50:25;4.13;;;1.42;;
12476;SDS011;6303;51.504;6.300;2022-10-16T10:53:00;4.07;;;1.30;;
12476;SDS011;6303;51.504;6.300;2022-10-16T10:55:37;2.17;;;1.30;;
12476;SDS011;6303;51.504;6.300;2022-10-16T10:58:19;2.28;;;1.30;;
12476;SDS011;6303;51.504;6.300;2022-10-16T11:01:07;5.45;;;1.63;;
12476;SDS011;6303;51.504;6.300;2022-10-16T11:03:50;5.15;;;1.58;;
12476;SDS011;6303;51.504;6.300;2022-10-16T11:06:32;1.85;;;1.35;;
12476;SDS011;6303;51.504;6.300;2022-10-16T11:09:03;3.35;;;1.20;;
12476;SDS011;6303;51.504;6.300;2022-10-16T11:11:38;3.17;;;1.48;;
12476;SDS011;6303;51.504;6.300;2022-10-16T11:14:11;3.47;;;1.45;;
12476;SDS011;6303;51.504;6.300;2022-10-16T11:16:44;2.25;;;1.52;;
12476;SDS011;6303;51.504;6.300;2022-10-16T11:19:22;3.63;;;1.30;;
12476;SDS011;6303;51.504;6.300;2022-10-16T11:22:01;2.50;;;1.25;;
12476;SDS011;6303;51.504;6.300;2022-10-16T11:24:34;1.92;;;1.23;;
12476;SDS011;6303;51.504;6.300;2022-10-16T11:27:08;4.25;;;1.30;;
12476;SDS011;6303;51.504;6.300;2022-10-16T11:29:42;3.95;;;1.77;;
12476;SDS011;6303;51.504;6.300;2022-10-16T11:32:18;7.20;;;2.33;;
12476;SDS011;6303;51.504;6.300;2022-10-16T11:34:50;13.35;;;3.92;;
12476;SDS011;6303;51.504;6.300;2022-10-16T11:37:25;30.50;;;5.53;;
12476;SDS011;6303;51.504;6.300;2022-10-16T11:39:58;40.80;;;8.85;;
12476;SDS011;6303;51.504;6.300;2022-10-16T11:42:32;33.40;;;7.00;;
12476;SDS011;6303;51.504;6.300;2022-10-16T11:45:07;33.03;;;6.82;;
12476;SDS011;6303;51.504;6.300;2022-10-16T11:47:51;28.95;;;6.60;;
12476;SDS011;6303;51.504;6.300;2022-10-16T11:50:26;26.63;;;6.80;;
12476;SDS011;6303;51.504;6.300;2022-10-16T11:53:00;30.45;;;7.00;;
12476;SDS011;6303;51.504;6.300;2022-10-16T11:55:31;24.27;;;7.28;;
12476;SDS011;6303;51.504;6.300;2022-10-16T11:58:01;29.40;;;6.88;;
12476;SDS011;6303;51.504;6.300;2022-10-16T12:00:33;23.48;;;6.55;;
12476;SDS011;6303;51.504;6.300;2022-10-16T12:03:10;27.40;;;6.53;;
12476;SDS011;6303;51.504;6.300;2022-10-16T12:05:49;21.10;;;6.47;;
12476;SDS011;6303;51.504;6.300;2022-10-16T12:08:25;24.17;;;6.38;;
12476;SDS011;6303;51.504;6.300;2022-10-16T12:10:53;22.67;;;6.15;;
12476;SDS011;6303;51.504;6.300;2022-10-16T12:13:33;19.83;;;5.55;;
12476;SDS011;6303;51.504;6.300;2022-10-16T12:18:48;21.50;;;5.40;;
12476;SDS011;6303;51.504;6.300;2022-10-16T12:21:16;22.60;;;5.90;;
12476;SDS011;6303;51.504;6.300;2022-10-16T12:23:49;18.10;;;5.75;;
12476;SDS011;6303;51.504;6.300;2022-10-16T12:26:27;19.90;;;5.78;;
12476;SDS011;6303;51.504;6.300;2022-10-16T12:29:08;21.48;;;5.22;;
12476;SDS011;6303;51.504;6.300;2022-10-16T12:31:43;14.82;;;4.97;;
12476;SDS011;6303;51.504;6.300;2022-10-16T12:34:14;14.88;;;4.60;;
12476;SDS011;6303;51.504;6.300;2022-10-16T12:36:48;12.00;;;4.30;;
12476;SDS011;6303;51.504;6.300;2022-10-16T12:39:21;8.07;;;3.97;;
12476;SDS011;6303;51.504;6.300;2022-10-16T12:42:00;11.00;;;4.15;;
12476;SDS011;6303;51.504;6.300;2022-10-16T12:44:31;13.27;;;4.30;;
12476;SDS011;6303;51.504;6.300;2022-10-16T12:46:59;10.40;;;3.58;;
12476;SDS011;6303;51.504;6.300;2022-10-16T12:49:31;11.68;;;4.13;;
12476;SDS011;6303;51.504;6.300;2022-10-16T12:52:02;11.57;;;4.35;;
12476;SDS011;6303;51.504;6.300;2022-10-16T12:54:34;13.27;;;4.00;;
12476;SDS011;6303;51.504;6.300;2022-10-16T12:57:07;11.70;;;3.78;;
12476;SDS011;6303;51.504;6.300;2022-10-16T12:59:46;9.63;;;3.58;;
12476;SDS011;6303;51.504;6.300;2022-10-16T13:02:39;9.68;;;3.70;;
12476;SDS011;6303;51.504;6.300;2022-10-16T13:05:26;8.75;;;3.40;;
12476;SDS011;6303;51.504;6.300;2022-10-16T13:08:05;5.80;;;3.03;;
12476;SDS011;6303;51.504;6.300;2022-10-16T13:10:51;8.32;;;3.20;;
12476;SDS011;6303;51.504;6.300;2022-10-16T13:16:33;8.70;;;3.40;;
12476;SDS011;6303;51.504;6.300;2022-10-16T13:19:11;9.15;;;3.10;;
12476;SDS011;6303;51.504;6.300;2022-10-16T13:21:46;8.93;;;2.85;;
12476;SDS011;6303;51.504;6.300;2022-10-16T13:24:20;6.57;;;2.80;;
12476;SDS011;6303;51.504;6.300;2022-10-16T13:27:03;8.95;;;2.75;;
12476;SDS011;6303;51.504;6.300;2022-10-16T13:29:37;6.22;;;3.05;;
12476;SDS011;6303;51.504;6.300;2022-10-16T13:32:07;5.20;;;2.75;;
12476;SDS011;6303;51.504;6.300;2022-10-16T13:34:43;6.32;;;2.63;;
12476;SDS011;6303;51.504;6.300;2022-10-16T13:37:16;6.65;;;2.53;;
12476;SDS011;6303;51.504;6.300;2022-10-16T13:39:44;6.78;;;3.00;;
12476;SDS011;6303;51.504;6.300;2022-10-16T13:42:14;5.60;;;2.80;;
12476;SDS011;6303;51.504;6.300;2022-10-16T13:44:45;6.95;;;3.15;;
12476;SDS011;6303;51.504;6.300;2022-10-16T13:47:16;5.22;;;2.92;;
12476;SDS011;6303;51.504;6.300;2022-10-16T13:49:45;9.10;;;2.83;;
12476;SDS011;6303;51.504;6.300;2022-10-16T13:52:16;6.15;;;2.40;;
12476;SDS011;6303;51.504;6.300;2022-10-16T13:54:45;5.25;;;2.53;;
12476;SDS011;6303;51.504;6.300;2022-10-16T13:57:14;6.03;;;2.45;;
12476;SDS011;6303;51.504;6.300;2022-10-16T13:59:42;4.78;;;2.05;;
12476;SDS011;6303;51.504;6.300;2022-10-16T14:02:15;7.35;;;2.70;;
12476;SDS011;6303;51.504;6.300;2022-10-16T14:04:48;5.35;;;2.30;;
12476;SDS011;6303;51.504;6.300;2022-10-16T14:07:18;5.82;;;2.40;;
12476;SDS011;6303;51.504;6.300;2022-10-16T14:09:49;6.55;;;2.20;;
12476;SDS011;6303;51.504;6.300;2022-10-16T14:12:18;2.88;;;1.80;;
12476;SDS011;6303;51.504;6.300;2022-10-16T14:14:47;4.43;;;2.30;;
12476;SDS011;6303;51.504;6.300;2022-10-16T14:17:18;5.32;;;2.17;;
12476;SDS011;6303;51.504;6.300;2022-10-16T14:19:48;4.97;;;2.20;;
12476;SDS011;6303;51.504;6.300;2022-10-16T14:22:22;6.47;;;2.33;;
12476;SDS011;6303;51.504;6.300;2022-10-16T14:24:54;3.33;;;2.30;;
12476;SDS011;6303;51.504;6.300;2022-10-16T14:27:25;3.80;;;2.10;;
12476;SDS011;6303;51.504;6.300;2022-10-16T14:30:12;4.78;;;2.10;;
12476;SDS011;6303;51.504;6.300;2022-10-16T14:32:42;4.18;;;2.20;;
12476;SDS011;6303;51.504;6.300;2022-10-16T14:35:24;3.03;;;1.70;;
12476;SDS011;6303;51.504;6.300;2022-10-16T14:37:53;4.32;;;1.90;;
12476;SDS011;6303;51.504;6.300;2022-10-16T14:40:21;5.38;;;2.20;;
12476;SDS011;6303;51.504;6.300;2022-10-16T14:42:52;3.88;;;2.00;;
12476;SDS011;6303;51.504;6.300;2022-10-16T14:45:20;3.28;;;1.70;;
12476;SDS011;6303;51.504;6.300;2022-10-16T14:47:50;3.33;;;1.92;;
12476;SDS011;6303;51.504;6.300;2022-10-16T14:50:19;4.22;;;2.00;;
12476;SDS011;6303;51.504;6.300;2022-10-16T14:52:47;2.63;;;1.80;;
12476;SDS011;6303;51.504;6.300;2022-10-16T14:55:14;3.28;;;2.05;;
12476;SDS011;6303;51.504;6.300;2022-10-16T14:57:42;3.42;;;2.00;;
12476;SDS011;6303;51.504;6.300;2022-10-16T15:00:16;4.70;;;2.03;;
12476;SDS011;6303;51.504;6.300;2022-10-16T15:02:45;2.92;;;1.92;;
12476;SDS011;6303;51.504;6.300;2022-10-16T15:05:14;3.15;;;1.73;;
12476;SDS011;6303;51.504;6.300;2022-10-16T15:07:43;3.58;;;1.90;;
12476;SDS011;6303;51.504;6.300;2022-10-16T15:10:11;3.03;;;1.90;;
12476;SDS011;6303;51.504;6.300;2022-10-16T15:12:39;3.30;;;1.80;;
12476;SDS011;6303;51.504;6.300;2022-10-16T15:15:23;3.38;;;1.75;;
12476;SDS011;6303;51.504;6.300;2022-10-16T15:18:02;2.90;;;1.65;;
12476;SDS011;6303;51.504;6.300;2022-10-16T15:20:30;2.40;;;1.90;;
12476;SDS011;6303;51.504;6.300;2022-10-16T15:22:59;3.05;;;1.80;;
12476;SDS011;6303;51.504;6.300;2022-10-16T15:25:30;3.47;;;1.92;;
12476;SDS011;6303;51.504;6.300;2022-10-16T15:27:59;3.08;;;1.73;;
12476;SDS011;6303;51.504;6.300;2022-10-16T15:30:29;2.55;;;1.73;;
12476;SDS011;6303;51.504;6.300;2022-10-16T15:32:56;2.42;;;1.50;;
12476;SDS011;6303;51.504;6.300;2022-10-16T15:35:24;3.22;;;1.75;;